Etusivu
METAR-TAF:

METAR-TAF

Lentoasemat :

Monastir, Tunisia

Leveyspiiri: 35-46N, Pituuspiiri: 010-45E, korkeus merenpinnasta: 2 m

Tämänhetkinen sää

Tämä raportti tehtiin 33 minuuttia sitten, kello 13.30 UTC
Tuuli 21 kn etelästä/lounaasta
Lämpötila 20°C
Kosteus 43%
Ilmanpaine 1003 hPa
Näkyvyys: 6000 m

METAR: DTMB 281330Z 20021KT 6000 NSC 20/07 Q1003

Aika: 15:03 (14:03 UTC)

Sääennuste

Tämä raportti tehtiin 3 tuntia ja 3 minuuttia sitten, kello 11.00 UTC
Ennuste voimassa 28. päivästä klo 12 UTC - 29. päivään klo 12 UTC
Tuuli 23 kn etelästä/kaakosta
Näkyvyys: 8000 m
Muutamia pilviä 2300 ft:n korkeudessa
Tulossa
28. päivästä klo 12 UTC - 28. päivään klo 14 UTC
Tuuli 18 kn etelästä/lounaasta puuskistuen 30 kn:hen
Tulossa
28. päivästä klo 21 UTC - 28. päivään klo 23 UTC
Tuuli 16 kn etelästä

TAF: DTMB 281100Z 2812/2912 15023KT 8000 FEW023 BECMG 2812/2814 20018G30KT BECMG 2821/2823 19016KT

Säähavainnot ja -ennusteet yli 4000 lentoasemalta (METAR- ja TAF-raportit).

Käytössä olevat sääasemat on merkitty karttaan keltaisilla ja punaisilla pisteillä.

Aseta hiiri pisteen päälle nähdäksesi sääaseman nimen.

Klikkaa sitten nähdäksesi säähavainnot ja -ennusteet.

Kartan vaihtaminen: klikkaa mustalla rastilla varustettuja vihreitä pisteitä, niin voit zoomata sisään; viivalla varustettua vihreää pistettä, niin voit zoomata ulos tai vihreitä nuolia, niin pääset viereisille kartoille.


METAR-TAF: